• Join FlightAware (Why Join?)
  • Login
  • US Flag 
09:02PM EDT


 

Airport Tracker/Info


-or-


 

Live Flight TrackerFlight Track Log ✈ SWA1319 ✈ 22-Apr-2013 ✈ KMHT - KBWI

Flight Track Log - Related Links

Times and Time Zones

All times are in EDT time to prevent confusion due to time zone crossing. See the SWA1319 flight status page for this flight to view local times or setup timezone preferences in your user account.

Time Position Orientation Groundspeed Altitude Reporting Facility
EDT Latitude Longitude Course Direction KTS MPH feet Rate Location/Type
08:43AM 42.9500 -71.4167 144° Southeast 158 182 1,100  Level KA90
08:44AM 43.0061 -71.3925 17° North 231 266 4,500 2,940 Climbing Boston Center
08:45AM 43.0261 -71.3042 73° East 212 244 7,800 2,820 Climbing Boston Center
08:46AM 43.0419 -71.2128 77° East 236 272 10,200 2,460 Climbing Boston Center
08:47AM 43.0617 -71.1072 76° East 264 304 12,800 2,460 Climbing Boston Center
08:48AM 43.0280 -70.9113 144° Southeast  Level FlightAware Approximate
08:48AM 43.0706 -70.9933 84° East 298 343 15,200  Level Boston Center
08:49AM 43.0069 -70.9011 133° Southeast 312 359 16,600 1,380 Climbing Boston Center
08:50AM 42.9072 -70.9236 189° South 292 336 18,000 1,500 Climbing Boston Center
08:51AM 42.8222 -70.9597 197° South 326 375 19,600 1,800 Climbing Boston Center
08:52AM 42.7269 -71.0100 201° Southwest 348 400 21,700 1,980 Climbing Boston Center
08:53AM 42.6233 -71.0603 200° South 375 432 23,600 1,500 Climbing Boston Center
08:54AM 42.5411 -71.1439 217° Southwest 389 448 24,800 1,380 Climbing Boston Center
08:55AM 42.4903 -71.2828 244° Southwest 373 429 26,400 2,400 Climbing Boston Center
08:56AM 42.4436 -71.4103 244° Southwest 389 448 29,700 2,640 Climbing Boston Center
08:57AM 42.4008 -71.5292 244° Southwest 373 429 31,700 1,500 Climbing Boston Center
08:58AM 42.3517 -71.6422 240° Southwest 360 414 32,800 1,140 Climbing Boston Center
08:59AM 42.3067 -71.7550 242° Southwest 355 409 34,000 600 Climbing Boston Center
09:00AM 42.2508 -71.8650 236° Southwest 355 409 34,000  Level Boston Center
09:01AM 42.1931 -71.9722 234° Southwest 361 415 34,000  Level Boston Center
09:02AM 42.1350 -72.0761 233° Southwest 361 415 34,000  Level Boston Center
09:03AM 42.0792 -72.1800 234° Southwest 361 415 34,000  Level Boston Center
09:04AM 42.0169 -72.2947 234° Southwest 361 415 34,000  Level Boston Center
09:05AM 41.9564 -72.3983 232° Southwest 356 410 34,000  Level Boston Center
09:06AM 41.8981 -72.5014 233° Southwest 356 410 34,000  Level Boston Center
09:07AM 41.8417 -72.6044 234° Southwest 356 410 34,000  Level Boston Center
09:08AM 41.7833 -72.7075 233° Southwest 356 410 34,000  Level Boston Center
09:09AM 41.7244 -72.8100 232° Southwest 356 410 34,000  Level Boston Center
09:10AM 41.6636 -72.9125 232° Southwest 356 410 34,000 -240 Level Boston Center
09:11AM 41.6050 -73.0175 233° Southwest 361 415 33,600 -720 Descending Boston Center
09:12AM 41.5439 -73.1253 233° Southwest 361 415 32,600 -840 Descending Boston Center
09:13AM 41.4869 -73.2269 233° Southwest 361 415 32,000 -240 Descending Boston Center
09:15AM 41.3583 -73.4497 232° Southwest 362 417 32,000  Level New York Center
09:16AM 41.2889 -73.5683 232° Southwest 368 423 32,000 -60 Level New York Center
09:17AM 41.2258 -73.6733 231° Southwest 368 423 31,900 -60 Descending New York Center
09:18AM 41.1650 -73.7808 233° Southwest 368 423 31,900  Level New York Center
09:19AM 41.1039 -73.8856 232° Southwest 368 423 31,900 -120 Level New York Center
09:20AM 41.0386 -73.9925 231° Southwest 368 423 31,700 -900 Descending New York Center
09:21AM 40.9753 -74.0967 231° Southwest 368 423 30,200 -1,560 Descending New York Center
09:22AM 40.9228 -74.1847 232° Southwest 368 423 28,600 -2,760 Descending New York Center
09:23AM 40.8461 -74.3069 230° Southwest 381 438 24,700 -3,300 Descending New York Center
09:24AM 40.7781 -74.4214 232° Southwest 397 457 22,000 -1,440 Descending New York Center
09:25AM 40.7122 -74.5300 231° Southwest 397 457 21,900 -480 Descending New York Center
09:26AM 40.6439 -74.6411 231° Southwest 397 457 21,100 -900 Descending New York Center
09:27AM 40.5714 -74.7572 231° Southwest 403 464 20,200 -960 Descending New York Center
09:28AM 40.4881 -74.8778 228° Southwest 417 480 19,200 -960 Descending New York Center
09:29AM 40.4133 -74.9853 228° Southwest 408 470 18,300 -600 Descending New York Center
09:30AM 40.3475 -75.0792 227° Southwest 401 461 18,000 -180 Descending New York Center
09:31AM 40.2750 -75.1781 226° Southwest 396 456 18,000  Level New York Center
09:32AM 40.1981 -75.2819 226° Southwest 396 456 18,000  Level New York Center
09:33AM 40.1211 -75.3908 227° Southwest 389 448 18,000  Level New York Center
09:34AM 40.0550 -75.4814 226° Southwest 389 448 18,000  Level New York Center
09:35AM 39.9756 -75.5900 226° Southwest 384 442 18,000 120 Level New York Center
09:36AM 39.9111 -75.6828 228° Southwest 384 442 18,300 -480 Climbing New York Center
09:37AM 39.8433 -75.8106 235° Southwest 390 449 17,100 -1,440 Descending New York Center
09:38AM 39.7972 -75.9072 238° Southwest 379 436 15,500 -1,800 Descending New York Center
09:40AM 39.6833 -76.1167 235° Southwest 336 387 12,000 -1,500 Descending Potomac TRACON
09:41AM 39.6333 -76.2167 237° Southwest 348 400 11,300 -900 Descending Potomac TRACON
09:42AM 39.5833 -76.3167 237° Southwest 358 412 10,400 -720 Descending Potomac TRACON
09:43AM 39.5333 -76.4167 237° Southwest 314 361 10,000 -1,080 Descending Potomac TRACON
09:44AM 39.5000 -76.5000 243° Southwest 280 322 8,300 -1,800 Descending Potomac TRACON
09:45AM 39.4667 -76.5833 243° Southwest 278 320 6,400 -1,800 Descending Potomac TRACON
09:46AM 39.4167 -76.6833 237° Southwest 277 319 4,700 -1,200 Descending Potomac TRACON
09:47AM 39.3833 -76.7667 243° Southwest 275 316 4,000 -600 Descending Potomac TRACON
09:48AM 39.3500 -76.8333 237° Southwest 275 316 3,600 -660 Descending Potomac TRACON
09:49AM 39.2667 -76.8167 171° South 253 291 2,800 -840 Descending Potomac TRACON